sensor_id;sensor_type;location;lat;lon;timestamp;pressure;altitude;pressure_sealevel;temperature;humidity
28510;BME280;15723;55.684;37.928;2023-04-01T00:00:49;98691.56;;;3.30;79.97
28510;BME280;15723;55.684;37.928;2023-04-01T00:03:15;98686.69;;;3.38;79.53
28510;BME280;15723;55.684;37.928;2023-04-01T00:05:41;98687.84;;;3.33;79.86
28510;BME280;15723;55.684;37.928;2023-04-01T00:08:07;98689.06;;;3.27;80.00
28510;BME280;15723;55.684;37.928;2023-04-01T00:10:33;98689.75;;;3.31;80.51
28510;BME280;15723;55.684;37.928;2023-04-01T00:12:59;98688.69;;;3.51;79.75
28510;BME280;15723;55.684;37.928;2023-04-01T00:15:25;98686.53;;;3.24;79.75
28510;BME280;15723;55.684;37.928;2023-04-01T00:17:51;98680.66;;;3.33;80.05
28510;BME280;15723;55.684;37.928;2023-04-01T00:20:17;98675.13;;;3.21;80.49
28510;BME280;15723;55.684;37.928;2023-04-01T00:22:43;98681.41;;;3.37;80.10
28510;BME280;15723;55.684;37.928;2023-04-01T00:25:09;98681.69;;;3.31;80.54
28510;BME280;15723;55.684;37.928;2023-04-01T00:27:35;98677.25;;;3.47;79.94
28510;BME280;15723;55.684;37.928;2023-04-01T00:30:01;98678.66;;;3.21;80.26
28510;BME280;15723;55.684;37.928;2023-04-01T00:32:28;98684.22;;;3.34;80.13
28510;BME280;15723;55.684;37.928;2023-04-01T00:34:54;98681.69;;;3.15;80.64
28510;BME280;15723;55.684;37.928;2023-04-01T00:37:20;98687.63;;;3.37;80.27
28510;BME280;15723;55.684;37.928;2023-04-01T00:39:46;98684.28;;;3.32;80.44
28510;BME280;15723;55.684;37.928;2023-04-01T00:42:12;98683.91;;;3.40;80.28
28510;BME280;15723;55.684;37.928;2023-04-01T00:44:39;98686.00;;;3.18;80.54
28510;BME280;15723;55.684;37.928;2023-04-01T00:47:06;98682.88;;;3.09;80.78
28510;BME280;15723;55.684;37.928;2023-04-01T00:49:34;98681.69;;;3.15;81.21
28510;BME280;15723;55.684;37.928;2023-04-01T00:52:02;98679.00;;;3.15;79.97
28510;BME280;15723;55.684;37.928;2023-04-01T00:54:29;98678.00;;;3.00;81.08
28510;BME280;15723;55.684;37.928;2023-04-01T00:57:03;98679.41;;;3.07;80.47
28510;BME280;15723;55.684;37.928;2023-04-01T00:59:30;98683.84;;;3.24;81.01
28510;BME280;15723;55.684;37.928;2023-04-01T01:01:57;98683.84;;;3.24;80.91
28510;BME280;15723;55.684;37.928;2023-04-01T01:04:27;98685.34;;;3.30;80.54
28510;BME280;15723;55.684;37.928;2023-04-01T01:07:12;98685.19;;;3.00;80.36
28510;BME280;15723;55.684;37.928;2023-04-01T01:09:45;98682.09;;;2.90;80.46
28510;BME280;15723;55.684;37.928;2023-04-01T01:20:25;98680.53;;;2.86;81.07
28510;BME280;15723;55.684;37.928;2023-04-01T01:35:33;98676.81;;;3.06;80.96
28510;BME280;15723;55.684;37.928;2023-04-01T01:38:09;98675.94;;;3.05;80.57
28510;BME280;15723;55.684;37.928;2023-04-01T01:40:38;98683.91;;;3.07;80.74
28510;BME280;15723;55.684;37.928;2023-04-01T01:43:07;98684.53;;;3.12;80.59
28510;BME280;15723;55.684;37.928;2023-04-01T01:45:36;98678.28;;;3.11;80.40
28510;BME280;15723;55.684;37.928;2023-04-01T01:48:05;98687.38;;;3.09;80.71
28510;BME280;15723;55.684;37.928;2023-04-01T01:50:33;98682.25;;;3.04;80.60
28510;BME280;15723;55.684;37.928;2023-04-01T01:53:03;98686.25;;;3.13;80.50
28510;BME280;15723;55.684;37.928;2023-04-01T01:55:31;98691.38;;;3.18;80.93
28510;BME280;15723;55.684;37.928;2023-04-01T01:57:58;98688.94;;;2.96;81.30
28510;BME280;15723;55.684;37.928;2023-04-01T02:00:25;98688.41;;;3.06;80.94
28510;BME280;15723;55.684;37.928;2023-04-01T02:02:51;98689.44;;;3.37;79.24
28510;BME280;15723;55.684;37.928;2023-04-01T02:05:19;98700.63;;;2.95;80.27
28510;BME280;15723;55.684;37.928;2023-04-01T02:07:48;98697.41;;;2.88;80.69
28510;BME280;15723;55.684;37.928;2023-04-01T02:10:17;98692.97;;;3.04;80.64
28510;BME280;15723;55.684;37.928;2023-04-01T02:12:45;98710.47;;;2.94;81.25
28510;BME280;15723;55.684;37.928;2023-04-01T02:15:13;98699.50;;;3.16;80.70
28510;BME280;15723;55.684;37.928;2023-04-01T02:17:44;98702.44;;;3.11;80.38
28510;BME280;15723;55.684;37.928;2023-04-01T02:20:14;98708.44;;;2.99;81.47
28510;BME280;15723;55.684;37.928;2023-04-01T02:22:43;98703.69;;;3.04;81.37
28510;BME280;15723;55.684;37.928;2023-04-01T02:25:11;98711.03;;;2.83;81.61
28510;BME280;15723;55.684;37.928;2023-04-01T02:27:39;98714.34;;;3.06;81.16
28510;BME280;15723;55.684;37.928;2023-04-01T02:30:05;98708.81;;;2.92;80.60
28510;BME280;15723;55.684;37.928;2023-04-01T02:32:33;98700.38;;;3.17;80.67
28510;BME280;15723;55.684;37.928;2023-04-01T02:35:00;98709.78;;;3.08;80.28
28510;BME280;15723;55.684;37.928;2023-04-01T02:37:28;98702.53;;;3.26;80.15
28510;BME280;15723;55.684;37.928;2023-04-01T02:39:58;98713.88;;;3.31;80.66
28510;BME280;15723;55.684;37.928;2023-04-01T02:42:24;98712.16;;;3.30;80.64
28510;BME280;15723;55.684;37.928;2023-04-01T02:44:51;98713.16;;;2.94;81.28
28510;BME280;15723;55.684;37.928;2023-04-01T02:47:16;98717.31;;;3.17;80.83
28510;BME280;15723;55.684;37.928;2023-04-01T02:49:42;98717.03;;;3.06;80.78
28510;BME280;15723;55.684;37.928;2023-04-01T02:52:08;98706.47;;;3.03;80.72
28510;BME280;15723;55.684;37.928;2023-04-01T02:54:34;98706.75;;;3.14;80.87
28510;BME280;15723;55.684;37.928;2023-04-01T02:57:00;98700.38;;;3.17;80.56
28510;BME280;15723;55.684;37.928;2023-04-01T02:59:26;98707.38;;;3.19;80.82
28510;BME280;15723;55.684;37.928;2023-04-01T03:01:52;98706.50;;;3.19;80.88
28510;BME280;15723;55.684;37.928;2023-04-01T03:04:18;98718.44;;;2.96;80.37
28510;BME280;15723;55.684;37.928;2023-04-01T03:06:44;98709.97;;;3.21;80.27
28510;BME280;15723;55.684;37.928;2023-04-01T03:09:10;98709.81;;;3.24;80.29
28510;BME280;15723;55.684;37.928;2023-04-01T03:11:37;98719.91;;;3.36;80.16
28510;BME280;15723;55.684;37.928;2023-04-01T03:14:03;98722.50;;;3.53;79.29
28510;BME280;15723;55.684;37.928;2023-04-01T03:16:29;98713.19;;;3.27;79.42
28510;BME280;15723;55.684;37.928;2023-04-01T03:18:55;98719.97;;;3.01;80.88
28510;BME280;15723;55.684;37.928;2023-04-01T03:21:24;98725.44;;;3.16;80.54
28510;BME280;15723;55.684;37.928;2023-04-01T03:23:50;98716.72;;;3.28;80.40
28510;BME280;15723;55.684;37.928;2023-04-01T03:26:16;98731.53;;;3.02;81.06
28510;BME280;15723;55.684;37.928;2023-04-01T03:28:42;98729.94;;;3.15;81.33
28510;BME280;15723;55.684;37.928;2023-04-01T03:31:09;98739.34;;;2.89;82.16
28510;BME280;15723;55.684;37.928;2023-04-01T03:33:42;98739.47;;;3.21;80.77
28510;BME280;15723;55.684;37.928;2023-04-01T03:36:08;98739.00;;;3.12;80.93
28510;BME280;15723;55.684;37.928;2023-04-01T03:38:35;98745.25;;;3.13;80.73
28510;BME280;15723;55.684;37.928;2023-04-01T03:41:01;98750.31;;;3.02;80.68
28510;BME280;15723;55.684;37.928;2023-04-01T03:43:28;98738.03;;;3.31;80.44
28510;BME280;15723;55.684;37.928;2023-04-01T03:45:55;98746.22;;;3.28;80.23
28510;BME280;15723;55.684;37.928;2023-04-01T03:48:23;98748.28;;;3.23;80.56
28510;BME280;15723;55.684;37.928;2023-04-01T03:50:51;98748.56;;;3.51;79.57
28510;BME280;15723;55.684;37.928;2023-04-01T03:53:17;98750.28;;;3.19;80.12
28510;BME280;15723;55.684;37.928;2023-04-01T03:55:45;98750.19;;;3.38;80.76
28510;BME280;15723;55.684;37.928;2023-04-01T03:58:12;98740.94;;;3.43;80.12
28510;BME280;15723;55.684;37.928;2023-04-01T04:00:38;98746.47;;;3.40;80.29
28510;BME280;15723;55.684;37.928;2023-04-01T04:03:05;98765.09;;;3.26;80.65
28510;BME280;15723;55.684;37.928;2023-04-01T04:05:34;98762.53;;;3.07;80.52
28510;BME280;15723;55.684;37.928;2023-04-01T04:08:01;98764.53;;;3.37;79.62
28510;BME280;15723;55.684;37.928;2023-04-01T04:10:27;98765.88;;;3.61;79.69
28510;BME280;15723;55.684;37.928;2023-04-01T04:12:55;98768.28;;;3.50;79.63
28510;BME280;15723;55.684;37.928;2023-04-01T04:15:23;98780.09;;;3.63;79.80
28510;BME280;15723;55.684;37.928;2023-04-01T04:17:49;98778.91;;;3.36;79.51
28510;BME280;15723;55.684;37.928;2023-04-01T04:20:15;98782.03;;;3.44;79.89
28510;BME280;15723;55.684;37.928;2023-04-01T04:22:41;98785.69;;;3.26;80.01
28510;BME280;15723;55.684;37.928;2023-04-01T04:25:08;98786.03;;;3.53;78.86
28510;BME280;15723;55.684;37.928;2023-04-01T04:27:35;98792.94;;;3.24;80.17
28510;BME280;15723;55.684;37.928;2023-04-01T04:30:10;98786.28;;;3.48;80.04
28510;BME280;15723;55.684;37.928;2023-04-01T04:32:36;98792.53;;;3.49;79.68
28510;BME280;15723;55.684;37.928;2023-04-01T04:35:03;98793.38;;;3.49;79.82
28510;BME280;15723;55.684;37.928;2023-04-01T04:37:29;98791.50;;;3.34;79.45
28510;BME280;15723;55.684;37.928;2023-04-01T04:39:55;98800.94;;;3.58;79.50
28510;BME280;15723;55.684;37.928;2023-04-01T04:42:21;98799.50;;;3.68;79.34
28510;BME280;15723;55.684;37.928;2023-04-01T04:44:51;98800.06;;;3.75;79.21
28510;BME280;15723;55.684;37.928;2023-04-01T04:47:17;98801.97;;;3.56;79.21
28510;BME280;15723;55.684;37.928;2023-04-01T04:49:43;98802.84;;;3.56;79.21
28510;BME280;15723;55.684;37.928;2023-04-01T04:52:09;98801.00;;;3.74;78.60
28510;BME280;15723;55.684;37.928;2023-04-01T04:54:35;98807.84;;;3.80;78.72
28510;BME280;15723;55.684;37.928;2023-04-01T04:57:03;98811.66;;;3.58;78.89
28510;BME280;15723;55.684;37.928;2023-04-01T04:59:33;98817.91;;;3.59;79.90
28510;BME280;15723;55.684;37.928;2023-04-01T05:02:22;98817.81;;;3.78;79.10
28510;BME280;15723;55.684;37.928;2023-04-01T05:04:48;98816.78;;;3.63;79.65
28510;BME280;15723;55.684;37.928;2023-04-01T05:07:14;98819.94;;;3.71;78.89
28510;BME280;15723;55.684;37.928;2023-04-01T05:09:40;98825.38;;;3.69;79.24
28510;BME280;15723;55.684;37.928;2023-04-01T05:12:06;98818.41;;;3.83;79.54
28510;BME280;15723;55.684;37.928;2023-04-01T05:14:55;98819.38;;;3.97;79.11
28510;BME280;15723;55.684;37.928;2023-04-01T05:17:21;98825.59;;;3.82;79.15
28510;BME280;15723;55.684;37.928;2023-04-01T05:19:47;98821.13;;;3.65;79.76
28510;BME280;15723;55.684;37.928;2023-04-01T05:22:14;98816.59;;;3.50;79.51
28510;BME280;15723;55.684;37.928;2023-04-01T05:24:40;98814.53;;;3.88;78.91
28510;BME280;15723;55.684;37.928;2023-04-01T05:27:06;98823.06;;;4.12;78.76
28510;BME280;15723;55.684;37.928;2023-04-01T05:29:36;98827.75;;;4.24;78.07
28510;BME280;15723;55.684;37.928;2023-04-01T05:32:05;98817.25;;;4.35;77.51
28510;BME280;15723;55.684;37.928;2023-04-01T05:34:32;98822.72;;;4.34;77.52
28510;BME280;15723;55.684;37.928;2023-04-01T05:36:58;98816.47;;;4.33;77.37
28510;BME280;15723;55.684;37.928;2023-04-01T05:39:24;98821.69;;;4.52;77.51
28510;BME280;15723;55.684;37.928;2023-04-01T05:41:50;98824.19;;;4.71;76.52
28510;BME280;15723;55.684;37.928;2023-04-01T05:44:16;98818.06;;;4.53;77.19
28510;BME280;15723;55.684;37.928;2023-04-01T05:46:42;98825.63;;;4.77;76.75
28510;BME280;15723;55.684;37.928;2023-04-01T05:49:15;98834.44;;;5.10;76.06
28510;BME280;15723;55.684;37.928;2023-04-01T05:51:42;98837.34;;;4.91;76.57
28510;BME280;15723;55.684;37.928;2023-04-01T05:54:08;98835.75;;;5.03;76.55
28510;BME280;15723;55.684;37.928;2023-04-01T05:56:35;98829.88;;;4.81;75.73
28510;BME280;15723;55.684;37.928;2023-04-01T05:59:01;98845.09;;;5.12;76.16
28510;BME280;15723;55.684;37.928;2023-04-01T06:01:27;98841.63;;;5.25;76.17
28510;BME280;15723;55.684;37.928;2023-04-01T06:03:53;98845.09;;;5.12;75.63
28510;BME280;15723;55.684;37.928;2023-04-01T06:06:26;98855.25;;;5.07;75.97
28510;BME280;15723;55.684;37.928;2023-04-01T06:08:58;98844.88;;;5.30;74.92
28510;BME280;15723;55.684;37.928;2023-04-01T06:11:40;98849.63;;;5.55;74.08
28510;BME280;15723;55.684;37.928;2023-04-01T06:14:11;98855.63;;;5.00;74.81
28510;BME280;15723;55.684;37.928;2023-04-01T06:21:56;98862.84;;;5.30;75.43
28510;BME280;15723;55.684;37.928;2023-04-01T06:32:33;98863.16;;;5.70;74.62
28510;BME280;15723;55.684;37.928;2023-04-01T06:35:11;98857.38;;;5.31;75.19
28510;BME280;15723;55.684;37.928;2023-04-01T06:57:24;98874.44;;;6.62;71.56
28510;BME280;15723;55.684;37.928;2023-04-01T06:59:54;98881.13;;;6.42;71.42
28510;BME280;15723;55.684;37.928;2023-04-01T07:02:35;98881.16;;;5.83;72.03
28510;BME280;15723;55.684;37.928;2023-04-01T07:05:05;98880.22;;;6.55;72.20
28510;BME280;15723;55.684;37.928;2023-04-01T07:07:36;98880.81;;;6.18;73.26
28510;BME280;15723;55.684;37.928;2023-04-01T07:10:15;98888.53;;;6.38;72.27
28510;BME280;15723;55.684;37.928;2023-04-01T07:13:26;98899.59;;;6.34;71.83
28510;BME280;15723;55.684;37.928;2023-04-01T07:16:05;98890.34;;;6.52;71.42
28510;BME280;15723;55.684;37.928;2023-04-01T07:21:25;98900.75;;;6.01;71.91
28510;BME280;15723;55.684;37.928;2023-04-01T07:23:56;98894.56;;;6.27;72.60
28510;BME280;15723;55.684;37.928;2023-04-01T07:26:36;98893.53;;;6.44;71.41
28510;BME280;15723;55.684;37.928;2023-04-01T07:29:13;98894.88;;;6.51;71.52
28510;BME280;15723;55.684;37.928;2023-04-01T07:32:07;98891.06;;;6.68;71.67
28510;BME280;15723;55.684;37.928;2023-04-01T07:34:48;98894.56;;;6.70;72.21
28510;BME280;15723;55.684;37.928;2023-04-01T07:37:21;98884.56;;;7.26;70.44
28510;BME280;15723;55.684;37.928;2023-04-01T07:45:03;98903.03;;;6.78;71.62
28510;BME280;15723;55.684;37.928;2023-04-01T07:52:45;98909.13;;;7.09;70.25
28510;BME280;15723;55.684;37.928;2023-04-01T08:00:24;98915.53;;;7.47;67.96
28510;BME280;15723;55.684;37.928;2023-04-01T08:03:16;98921.53;;;7.78;68.83
28510;BME280;15723;55.684;37.928;2023-04-01T08:17:39;98915.44;;;8.65;66.33
28510;BME280;15723;55.684;37.928;2023-04-01T08:20:26;98928.19;;;8.25;67.68
28510;BME280;15723;55.684;37.928;2023-04-01T08:23:40;98921.91;;;8.75;65.90
28510;BME280;15723;55.684;37.928;2023-04-01T08:25:46;98929.09;;;9.00;64.61
28510;BME280;15723;55.684;37.928;2023-04-01T08:30:43;98935.38;;;8.88;65.57
28510;BME280;15723;55.684;37.928;2023-04-01T08:33:14;98931.03;;;9.58;63.50
28510;BME280;15723;55.684;37.928;2023-04-01T08:35:51;98927.25;;;9.24;64.62
28510;BME280;15723;55.684;37.928;2023-04-01T08:38:21;98936.56;;;9.81;64.18
28510;BME280;15723;55.684;37.928;2023-04-01T08:46:17;98927.44;;;9.82;60.86
28510;BME280;15723;55.684;37.928;2023-04-01T08:51:42;98937.88;;;10.45;60.95
28510;BME280;15723;55.684;37.928;2023-04-01T09:07:32;98935.59;;;11.72;57.87
28510;BME280;15723;55.684;37.928;2023-04-01T09:29:23;98958.28;;;10.03;57.27
28510;BME280;15723;55.684;37.928;2023-04-01T09:35:04;98963.41;;;11.21;55.76
28510;BME280;15723;55.684;37.928;2023-04-01T09:37:52;98952.91;;;11.27;55.60
28510;BME280;15723;55.684;37.928;2023-04-01T09:46:02;98966.28;;;10.86;56.07
28510;BME280;15723;55.684;37.928;2023-04-01T09:57:06;98968.72;;;10.78;56.81
28510;BME280;15723;55.684;37.928;2023-04-01T10:03:58;98973.31;;;9.96;57.57
28510;BME280;15723;55.684;37.928;2023-04-01T10:09:01;98977.69;;;10.45;56.49
28510;BME280;15723;55.684;37.928;2023-04-01T10:17:49;98987.16;;;10.39;53.74
28510;BME280;15723;55.684;37.928;2023-04-01T10:20:40;98992.91;;;10.23;54.01
28510;BME280;15723;55.684;37.928;2023-04-01T10:24:25;98987.94;;;10.52;55.08
28510;BME280;15723;55.684;37.928;2023-04-01T10:26:45;99002.75;;;10.48;53.15
28510;BME280;15723;55.684;37.928;2023-04-01T10:32:18;98996.84;;;10.65;54.41
28510;BME280;15723;55.684;37.928;2023-04-01T10:44:30;99007.31;;;10.48;55.52
28510;BME280;15723;55.684;37.928;2023-04-01T10:53:15;99004.38;;;10.73;52.44
28510;BME280;15723;55.684;37.928;2023-04-01T11:03:46;99007.25;;;10.37;50.38
28510;BME280;15723;55.684;37.928;2023-04-01T11:23:02;99013.53;;;10.83;48.98
28510;BME280;15723;55.684;37.928;2023-04-01T11:25:56;99008.84;;;10.96;50.68
28510;BME280;15723;55.684;37.928;2023-04-01T11:37:34;99008.91;;;10.61;49.32
28510;BME280;15723;55.684;37.928;2023-04-01T11:40:42;99011.53;;;10.28;49.31
28510;BME280;15723;55.684;37.928;2023-04-01T11:44:01;99017.19;;;10.71;48.79
28510;BME280;15723;55.684;37.928;2023-04-01T11:55:52;99017.44;;;10.68;49.81
28510;BME280;15723;55.684;37.928;2023-04-01T12:15:42;99037.34;;;11.13;50.09
28510;BME280;15723;55.684;37.928;2023-04-01T12:18:36;99025.88;;;11.21;50.13
28510;BME280;15723;55.684;37.928;2023-04-01T12:24:25;99021.06;;;11.02;50.49
28510;BME280;15723;55.684;37.928;2023-04-01T12:35:27;99027.84;;;11.08;50.31
28510;BME280;15723;55.684;37.928;2023-04-01T12:43:54;99046.97;;;11.06;51.02
28510;BME280;15723;55.684;37.928;2023-04-01T12:50:16;99053.41;;;11.27;49.39
28510;BME280;15723;55.684;37.928;2023-04-01T12:55:41;99050.91;;;11.02;50.17
28510;BME280;15723;55.684;37.928;2023-04-01T13:01:27;99056.09;;;10.83;51.85
28510;BME280;15723;55.684;37.928;2023-04-01T13:04:22;99065.91;;;10.61;50.32
28510;BME280;15723;55.684;37.928;2023-04-01T13:07:07;99065.31;;;10.34;49.69
28510;BME280;15723;55.684;37.928;2023-04-01T13:10:00;99063.28;;;10.49;51.72
28510;BME280;15723;55.684;37.928;2023-04-01T13:15:33;99057.41;;;10.31;51.50
28510;BME280;15723;55.684;37.928;2023-04-01T13:23:59;99065.03;;;10.50;51.44
28510;BME280;15723;55.684;37.928;2023-04-01T13:27:07;99076.41;;;10.31;52.17
28510;BME280;15723;55.684;37.928;2023-04-01T13:29:59;99077.91;;;10.35;50.01
28510;BME280;15723;55.684;37.928;2023-04-01T13:35:30;99096.41;;;9.93;51.84
28510;BME280;15723;55.684;37.928;2023-04-01T13:42:08;99085.84;;;10.01;51.52
28510;BME280;15723;55.684;37.928;2023-04-01T13:44:11;99075.47;;;9.95;51.45
28510;BME280;15723;55.684;37.928;2023-04-01T13:52:33;99101.00;;;9.80;52.56
28510;BME280;15723;55.684;37.928;2023-04-01T14:03:48;99099.63;;;9.75;54.96
28510;BME280;15723;55.684;37.928;2023-04-01T14:06:23;99106.56;;;9.66;56.14
28510;BME280;15723;55.684;37.928;2023-04-01T14:09:32;99118.66;;;9.36;56.42
28510;BME280;15723;55.684;37.928;2023-04-01T14:12:30;99115.09;;;8.98;57.18
28510;BME280;15723;55.684;37.928;2023-04-01T14:15:20;99112.50;;;9.34;57.42
28510;BME280;15723;55.684;37.928;2023-04-01T14:18:10;99128.84;;;9.20;57.62
28510;BME280;15723;55.684;37.928;2023-04-01T14:23:54;99122.88;;;9.28;58.08
28510;BME280;15723;55.684;37.928;2023-04-01T14:29:32;99124.69;;;9.53;56.93
28510;BME280;15723;55.684;37.928;2023-04-01T14:35:27;99119.75;;;9.34;59.05
28510;BME280;15723;55.684;37.928;2023-04-01T14:40:26;99136.41;;;9.28;59.33
28510;BME280;15723;55.684;37.928;2023-04-01T14:46:29;99146.50;;;9.26;60.00
28510;BME280;15723;55.684;37.928;2023-04-01T14:51:38;99148.00;;;9.43;59.22
28510;BME280;15723;55.684;37.928;2023-04-01T14:54:13;99148.78;;;9.32;60.48
28510;BME280;15723;55.684;37.928;2023-04-01T14:56:43;99149.75;;;9.18;60.12
28510;BME280;15723;55.684;37.928;2023-04-01T14:59:14;99156.38;;;9.39;60.99
28510;BME280;15723;55.684;37.928;2023-04-01T15:12:50;99167.41;;;9.24;63.10
28510;BME280;15723;55.684;37.928;2023-04-01T15:18:50;99159.72;;;9.05;63.23
28510;BME280;15723;55.684;37.928;2023-04-01T15:29:23;99183.44;;;9.01;65.44
28510;BME280;15723;55.684;37.928;2023-04-01T15:40:46;99184.78;;;8.82;68.43
28510;BME280;15723;55.684;37.928;2023-04-01T15:45:58;99193.06;;;8.93;67.65
28510;BME280;15723;55.684;37.928;2023-04-01T16:02:12;99220.88;;;8.55;69.17
28510;BME280;15723;55.684;37.928;2023-04-01T16:04:59;99218.94;;;8.57;69.72
28510;BME280;15723;55.684;37.928;2023-04-01T16:10:30;99235.34;;;8.54;69.98
28510;BME280;15723;55.684;37.928;2023-04-01T16:19:07;99243.00;;;8.48;70.84
28510;BME280;15723;55.684;37.928;2023-04-01T16:21:54;99244.94;;;8.45;70.88
28510;BME280;15723;55.684;37.928;2023-04-01T16:24:30;99248.38;;;8.62;71.25
28510;BME280;15723;55.684;37.928;2023-04-01T16:32:20;99262.38;;;8.68;70.15
28510;BME280;15723;55.684;37.928;2023-04-01T16:43:19;99272.50;;;8.38;70.51
28510;BME280;15723;55.684;37.928;2023-04-01T16:56:47;99277.75;;;8.54;71.35
28510;BME280;15723;55.684;37.928;2023-04-01T17:02:02;99279.00;;;8.62;72.33
28510;BME280;15723;55.684;37.928;2023-04-01T17:17:43;99287.38;;;8.02;73.54
28510;BME280;15723;55.684;37.928;2023-04-01T17:38:50;99301.66;;;8.33;74.50
28510;BME280;15723;55.684;37.928;2023-04-01T17:41:37;99301.19;;;8.12;74.11
28510;BME280;15723;55.684;37.928;2023-04-01T17:46:56;99297.31;;;8.16;74.06
28510;BME280;15723;55.684;37.928;2023-04-01T17:49:33;99291.66;;;7.92;74.30
28510;BME280;15723;55.684;37.928;2023-04-01T18:00:39;99315.94;;;8.06;73.35
28510;BME280;15723;55.684;37.928;2023-04-01T18:05:57;99321.38;;;8.35;73.49
28510;BME280;15723;55.684;37.928;2023-04-01T18:08:39;99327.81;;;8.46;73.53
28510;BME280;15723;55.684;37.928;2023-04-01T18:19:13;99333.53;;;8.42;74.54
28510;BME280;15723;55.684;37.928;2023-04-01T18:24:30;99334.41;;;7.86;75.29
28510;BME280;15723;55.684;37.928;2023-04-01T18:27:00;99337.38;;;7.67;75.45
28510;BME280;15723;55.684;37.928;2023-04-01T18:37:16;99337.84;;;7.73;75.32
28510;BME280;15723;55.684;37.928;2023-04-01T18:42:43;99347.53;;;7.92;75.00
28510;BME280;15723;55.684;37.928;2023-04-01T18:50:20;99363.56;;;7.80;74.90
28510;BME280;15723;55.684;37.928;2023-04-01T18:52:50;99364.81;;;7.89;75.64
28510;BME280;15723;55.684;37.928;2023-04-01T18:55:29;99364.41;;;7.95;74.71
28510;BME280;15723;55.684;37.928;2023-04-01T18:58:30;99361.44;;;8.00;75.26
28510;BME280;15723;55.684;37.928;2023-04-01T19:01:04;99365.09;;;7.84;74.61
28510;BME280;15723;55.684;37.928;2023-04-01T19:06:17;99375.22;;;8.09;74.17
28510;BME280;15723;55.684;37.928;2023-04-01T19:08:44;99375.63;;;8.03;74.14
28510;BME280;15723;55.684;37.928;2023-04-01T19:17:09;99378.81;;;7.96;74.88
28510;BME280;15723;55.684;37.928;2023-04-01T19:20:06;99384.59;;;7.90;75.15
28510;BME280;15723;55.684;37.928;2023-04-01T19:25:17;99391.94;;;7.88;74.90
28510;BME280;15723;55.684;37.928;2023-04-01T19:28:00;99384.31;;;7.94;75.08
28510;BME280;15723;55.684;37.928;2023-04-01T19:36:05;99389.41;;;7.99;74.42
28510;BME280;15723;55.684;37.928;2023-04-01T19:38:40;99383.81;;;8.02;75.04
28510;BME280;15723;55.684;37.928;2023-04-01T19:41:38;99382.56;;;7.93;74.58
28510;BME280;15723;55.684;37.928;2023-04-01T19:44:11;99391.94;;;7.88;74.94
28510;BME280;15723;55.684;37.928;2023-04-01T19:49:19;99381.41;;;8.11;74.64
28510;BME280;15723;55.684;37.928;2023-04-01T19:52:14;99393.97;;;7.98;74.75
28510;BME280;15723;55.684;37.928;2023-04-01T19:54:44;99392.97;;;7.85;74.66
28510;BME280;15723;55.684;37.928;2023-04-01T20:02:39;99396.66;;;7.98;75.08
28510;BME280;15723;55.684;37.928;2023-04-01T20:05:29;99396.94;;;7.94;75.03
28510;BME280;15723;55.684;37.928;2023-04-01T20:08:08;99396.00;;;8.23;74.19
28510;BME280;15723;55.684;37.928;2023-04-01T20:16:11;99402.88;;;8.29;74.21
28510;BME280;15723;55.684;37.928;2023-04-01T20:18:56;99408.06;;;8.18;73.94
28510;BME280;15723;55.684;37.928;2023-04-01T20:21:27;99409.13;;;8.29;74.33
28510;BME280;15723;55.684;37.928;2023-04-01T20:23:56;99419.47;;;8.23;73.51
28510;BME280;15723;55.684;37.928;2023-04-01T20:26:46;99425.00;;;8.35;73.41
28510;BME280;15723;55.684;37.928;2023-04-01T20:35:02;99418.63;;;8.36;73.76
28510;BME280;15723;55.684;37.928;2023-04-01T20:43:07;99408.78;;;8.35;73.90
28510;BME280;15723;55.684;37.928;2023-04-01T20:48:39;99419.25;;;8.11;74.44
28510;BME280;15723;55.684;37.928;2023-04-01T20:51:18;99419.81;;;8.16;74.43
28510;BME280;15723;55.684;37.928;2023-04-01T20:57:05;99418.09;;;8.15;75.19
28510;BME280;15723;55.684;37.928;2023-04-01T21:02:42;99426.81;;;8.21;75.59
28510;BME280;15723;55.684;37.928;2023-04-01T21:10:36;99421.50;;;8.19;74.99
28510;BME280;15723;55.684;37.928;2023-04-01T21:19:01;99415.78;;;8.09;74.83
28510;BME280;15723;55.684;37.928;2023-04-01T21:24:56;99428.41;;;7.95;76.50
28510;BME280;15723;55.684;37.928;2023-04-01T21:33:24;99442.91;;;8.08;74.97
28510;BME280;15723;55.684;37.928;2023-04-01T21:45:13;99445.50;;;8.09;76.30
28510;BME280;15723;55.684;37.928;2023-04-01T21:53:37;99457.69;;;8.16;76.43
28510;BME280;15723;55.684;37.928;2023-04-01T21:59:25;99458.19;;;8.23;77.12
28510;BME280;15723;55.684;37.928;2023-04-01T22:02:01;99451.59;;;8.13;76.46
28510;BME280;15723;55.684;37.928;2023-04-01T22:04:47;99454.44;;;8.26;76.74
28510;BME280;15723;55.684;37.928;2023-04-01T22:19:02;99471.56;;;7.96;76.53
28510;BME280;15723;55.684;37.928;2023-04-01T22:21:46;99462.88;;;8.05;76.31
28510;BME280;15723;55.684;37.928;2023-04-01T22:30:17;99472.53;;;7.95;76.42
28510;BME280;15723;55.684;37.928;2023-04-01T22:33:13;99469.56;;;8.14;76.77
28510;BME280;15723;55.684;37.928;2023-04-01T22:41:07;99474.91;;;7.86;77.46
28510;BME280;15723;55.684;37.928;2023-04-01T22:43:47;99473.00;;;7.72;78.11
28510;BME280;15723;55.684;37.928;2023-04-01T22:46:27;99480.50;;;7.82;78.71
28510;BME280;15723;55.684;37.928;2023-04-01T22:49:26;99470.78;;;7.94;78.36
28510;BME280;15723;55.684;37.928;2023-04-01T22:52:08;99468.84;;;7.96;78.46
28510;BME280;15723;55.684;37.928;2023-04-01T22:54:45;99471.34;;;7.85;78.82
28510;BME280;15723;55.684;37.928;2023-04-01T23:03:01;99470.84;;;8.23;78.65
28510;BME280;15723;55.684;37.928;2023-04-01T23:05:31;99467.72;;;8.14;78.91
28510;BME280;15723;55.684;37.928;2023-04-01T23:10:53;99480.81;;;7.92;80.36
28510;BME280;15723;55.684;37.928;2023-04-01T23:13:22;99471.75;;;7.93;80.58
28510;BME280;15723;55.684;37.928;2023-04-01T23:15:48;99476.78;;;7.99;81.16
28510;BME280;15723;55.684;37.928;2023-04-01T23:23:30;99478.69;;;7.83;81.38
28510;BME280;15723;55.684;37.928;2023-04-01T23:33:58;99481.75;;;8.21;80.86